This is the latest recevied weather packets stored in our database for station/object VE7OTD. If no packets are shown the sender has not sent any weather packets the latest 10 day(s).
| Time | Temp. | Humidity | Pressure | Rain* | Wind** | Luminosity | Snow |
|---|---|---|---|---|---|---|---|
| 1777627015 | 11.11° C | 77% | 1016.2 hPa | 0 mm | - | - | - |
| 1777625215 | 11.67° C | 74% | 1016.1 hPa | 0 mm | - | - | - |
| 1777623384 | 13.33° C | 69% | 1016 hPa | 0 mm | - | - | - |
| 1777619736 | 12.78° C | 72% | 1015.8 hPa | 0 mm | - | - | - |
| 1777617922 | 12.78° C | 72% | 1015.7 hPa | 0 mm | - | - | - |
| 1777616106 | 13.33° C | 74% | 1015.6 hPa | 0 mm | - | - | - |
| 1777614293 | 13.33° C | 78% | 1015.6 hPa | 0 mm | - | - | - |
| 1777612476 | 12.78° C | 78% | 1015.6 hPa | 0 mm | - | - | - |
| 1777610670 | 12.78° C | 80% | 1015.4 hPa | - | - | - | - |
| 1777609202 | 13.33° C | 78% | 1015.3 hPa | 0 mm | - | - | - |
| 1777607388 | 14.44° C | 60% | 1015.3 hPa | 0 mm | - | - | - |
| 1777605572 | 16.11° C | 56% | 1015.5 hPa | 0 mm | - | - | - |
| 1777603732 | 17.22° C | 58% | 1015.7 hPa | 0 mm | - | - | - |
| 1777601917 | 18.33° C | 59% | 1015.7 hPa | 0 mm | - | - | - |
| 1777583767 | 21.11° C | 47% | 1019.2 hPa | 0 mm | - | - | - |
| 1777581952 | 21.11° C | 55% | 1019.6 hPa | 0 mm | - | - | - |
| 1777580137 | 20° C | 49% | 1019.8 hPa | 0 mm | - | - | - |
| 1777576499 | 19.44° C | 54% | 1020.4 hPa | 0 mm | - | - | - |
| 1777574692 | 18.89° C | 54% | 1020.6 hPa | 0 mm | - | - | - |
| 1777572878 | 17.22° C | 57% | 1021 hPa | 0 mm | - | - | - |
| 1777571062 | 16.11° C | 61% | 1021.2 hPa | 0 mm | - | - | - |
| 1777569247 | 14.44° C | 63% | 1021.4 hPa | 0 mm | - | - | - |
| 1777565612 | 15.56° C | 59% | 1021.7 hPa | 0 mm | - | - | - |
| 1777554684 | 6.67° C | 89% | 1021.8 hPa | 0 mm | - | - | - |
| 1777547424 | 6.67° C | 87% | 1021.8 hPa | 0 mm | - | - | - |
* Rain latest hour (hover to see other rain measurements)
** Current wind speed in m/s (hover to see current wind gust speed)